createdAt,value
2023-07-03T00:00:28.155Z,99230.22
2023-07-03T00:02:58.147Z,99232.97
2023-07-03T00:05:27.232Z,99202.97
2023-07-03T00:07:55.592Z,99214.94
2023-07-03T00:10:23.756Z,99218.03
2023-07-03T00:12:52.248Z,99227.25
2023-07-03T00:15:23.374Z,99214.16
2023-07-03T00:17:51.724Z,99222.81
2023-07-03T00:20:21.502Z,99227.97
2023-07-03T00:22:54.101Z,99230.19
2023-07-03T00:25:22.776Z,99236.41
2023-07-03T00:27:51.642Z,99222.88
2023-07-03T00:30:22.653Z,99225.22
2023-07-03T00:32:51.304Z,99223.38
2023-07-03T00:35:21.957Z,99225.75
2023-07-03T00:37:52.900Z,99218.72
2023-07-03T00:40:21.495Z,99208.28
2023-07-03T00:42:54.089Z,99221.47
2023-07-03T00:45:22.766Z,99205.34
2023-07-03T00:47:51.673Z,99204.13
2023-07-03T00:50:22.568Z,99221.53
2023-07-03T00:52:55.533Z,99213.28
2023-07-03T00:55:24.763Z,99212.00
2023-07-03T00:57:53.594Z,99207.38
2023-07-03T01:00:23.471Z,99212.88
2023-07-03T01:03:00.912Z,99207.84
2023-07-03T01:05:36.387Z,99202.41
2023-07-03T01:08:04.960Z,99203.28
2023-07-03T01:10:34.383Z,99216.16
2023-07-03T01:13:07.230Z,99199.34
2023-07-03T01:15:39.436Z,99203.97
2023-07-03T01:18:10.191Z,99198.81
2023-07-03T01:20:46.342Z,99194.19
2023-07-03T01:23:30.326Z,99192.28
2023-07-03T01:26:00.763Z,99178.41
2023-07-03T01:28:30.466Z,99198.34
2023-07-03T01:30:59.713Z,99191.78
2023-07-03T01:33:33.531Z,99192.16
2023-07-03T01:36:02.518Z,99195.22
2023-07-03T01:38:31.566Z,99199.16
2023-07-03T01:41:03.291Z,99191.63
2023-07-03T01:43:33.090Z,99191.47
2023-07-03T01:46:01.465Z,99209.22
2023-07-03T01:48:33.673Z,99193.16
2023-07-03T01:51:02.800Z,99206.63
2023-07-03T01:53:34.869Z,99209.44
2023-07-03T01:56:12.139Z,99200.19
2023-07-03T01:58:45.284Z,99202.22
2023-07-03T02:01:20.948Z,99197.66
2023-07-03T02:03:55.603Z,99194.81
2023-07-03T02:06:28.364Z,99208.97
2023-07-03T02:08:57.220Z,99190.75
2023-07-03T02:11:30.561Z,99242.41
2023-07-03T02:13:58.802Z,99205.19
2023-07-03T02:16:30.861Z,99205.84
2023-07-03T02:18:59.967Z,99206.97
2023-07-03T02:21:29.477Z,99203.13
2023-07-03T02:24:00.478Z,99200.38
2023-07-03T02:26:30.139Z,99215.81
2023-07-03T02:29:01.146Z,99205.50
2023-07-03T02:31:29.300Z,99197.13
2023-07-03T02:33:57.550Z,99203.81
2023-07-03T02:36:30.811Z,99201.22
2023-07-03T02:38:59.800Z,99195.22
2023-07-03T02:41:29.386Z,99201.41
2023-07-03T02:43:59.109Z,99201.06
2023-07-03T02:46:28.041Z,99199.16
2023-07-03T02:48:57.021Z,99207.75
2023-07-03T02:51:25.250Z,99195.34
2023-07-03T02:53:53.559Z,99191.78
2023-07-03T02:56:21.599Z,99204.47
2023-07-03T02:58:51.201Z,99189.81
2023-07-03T03:01:22.976Z,99191.06
2023-07-03T03:03:51.549Z,99193.50
2023-07-03T03:06:21.909Z,99189.75
2023-07-03T03:08:52.838Z,99202.78
2023-07-03T03:11:21.336Z,99194.81
2023-07-03T03:13:51.269Z,99190.59
2023-07-03T03:16:19.847Z,99190.94
2023-07-03T03:18:48.987Z,99183.56
2023-07-03T03:21:17.756Z,99195.31
2023-07-03T03:23:45.936Z,99190.25
2023-07-03T03:26:14.497Z,99201.72
2023-07-03T03:28:42.745Z,99199.69
2023-07-03T03:31:12.462Z,99204.88
2023-07-03T03:33:41.124Z,99194.34
2023-07-03T03:36:09.767Z,99186.56
2023-07-03T03:38:38.166Z,99176.00
2023-07-03T03:41:06.491Z,99185.78
2023-07-03T03:43:34.674Z,99167.03
2023-07-03T03:46:04.265Z,99186.28
2023-07-03T03:48:34.678Z,99180.47
2023-07-03T03:51:03.558Z,99178.72
2023-07-03T03:53:32.429Z,99165.03
2023-07-03T03:56:01.042Z,99176.88
2023-07-03T03:58:29.204Z,99179.63
2023-07-03T04:00:57.693Z,99196.63
2023-07-03T04:03:25.808Z,99184.59
2023-07-03T04:05:58.208Z,99176.19
2023-07-03T04:08:26.378Z,99190.06
2023-07-03T04:10:54.774Z,99185.03
2023-07-03T04:13:23.339Z,99178.84
2023-07-03T04:16:02.267Z,99173.28
2023-07-03T04:18:32.426Z,99186.81
2023-07-03T04:21:02.461Z,99177.47
2023-07-03T04:23:31.003Z,99184.59
2023-07-03T04:26:00.283Z,99168.47
2023-07-03T04:28:28.388Z,99180.19
2023-07-03T04:30:56.618Z,99189.88
2023-07-03T04:33:24.870Z,99191.78
2023-07-03T04:35:53.609Z,99182.56
2023-07-03T04:38:25.472Z,99191.78
2023-07-03T04:40:54.814Z,99175.16
2023-07-03T04:43:26.126Z,99185.25
2023-07-03T04:45:57.551Z,99163.31
2023-07-03T04:48:26.115Z,99171.38
2023-07-03T04:50:54.392Z,99159.72
2023-07-03T04:53:24.526Z,99171.06
2023-07-03T04:55:53.451Z,99166.25
2023-07-03T04:58:22.761Z,99177.41
2023-07-03T05:00:51.137Z,99184.75
2023-07-03T05:03:19.436Z,99189.88
2023-07-03T05:05:48.054Z,99179.28
2023-07-03T05:08:16.654Z,99169.66
2023-07-03T05:10:46.515Z,99178.25
2023-07-03T05:13:14.689Z,99175.31
2023-07-03T05:15:42.870Z,99166.09
2023-07-03T05:18:11.004Z,99179.97
2023-07-03T05:20:39.168Z,99160.06
2023-07-03T05:23:07.775Z,99173.94
2023-07-03T05:25:36.298Z,99176.28
2023-07-03T05:28:06.105Z,99188.34
2023-07-03T05:30:34.368Z,99179.44
2023-07-03T05:33:03.304Z,99177.91
2023-07-03T05:35:31.487Z,99188.91
2023-07-03T05:38:01.434Z,99191.63
2023-07-03T05:40:30.121Z,99171.22
2023-07-03T05:42:58.585Z,99191.78
2023-07-03T05:45:28.840Z,99191.06
2023-07-03T05:47:56.997Z,99197.97
2023-07-03T05:50:25.144Z,99195.19
2023-07-03T05:52:53.433Z,99197.28
2023-07-03T05:55:21.890Z,99213.75
2023-07-03T05:57:53.591Z,99195.75
2023-07-03T06:00:23.247Z,99197.97
2023-07-03T06:02:55.165Z,99207.56
2023-07-03T06:05:23.477Z,99189.41
2023-07-03T06:07:54.574Z,99190.09
2023-07-03T06:10:24.818Z,99211.88
2023-07-03T06:12:53.094Z,99234.91
2023-07-03T06:15:24.482Z,99250.03
2023-07-03T06:17:54.175Z,99237.06
2023-07-03T06:20:26.101Z,99239.44
2023-07-03T06:22:54.221Z,99239.38
2023-07-03T06:25:25.741Z,99215.44
2023-07-03T06:27:53.889Z,99215.66
2023-07-03T06:30:25.056Z,99210.41
2023-07-03T06:32:54.880Z,99210.69
2023-07-03T06:35:23.307Z,99217.78
2023-07-03T06:37:54.615Z,99225.44
2023-07-03T06:40:23.287Z,99224.19
2023-07-03T06:42:53.441Z,99198.66
2023-07-03T06:45:22.339Z,99216.16
2023-07-03T06:47:50.601Z,99221.47
2023-07-03T06:50:23.079Z,99230.41
2023-07-03T06:52:51.511Z,99231.06
2023-07-03T06:55:21.672Z,99227.53
2023-07-03T06:57:50.252Z,99242.38
2023-07-03T07:00:22.014Z,99251.66
2023-07-03T07:02:50.591Z,99243.22
2023-07-03T07:05:22.749Z,99237.41
2023-07-03T07:07:51.151Z,99229.88
2023-07-03T07:10:19.848Z,99243.25
2023-07-03T07:12:47.972Z,99242.31
2023-07-03T07:15:16.335Z,99249.97
2023-07-03T07:17:51.901Z,99268.09
2023-07-03T07:20:22.215Z,99249.47
2023-07-03T07:22:51.033Z,99268.44
2023-07-03T07:25:19.224Z,99272.50
2023-07-03T07:27:47.760Z,99262.59
2023-07-03T07:30:16.593Z,99273.41
2023-07-03T07:32:45.593Z,99263.47
2023-07-03T07:35:14.183Z,99267.28
2023-07-03T07:37:44.072Z,99276.13
2023-07-03T07:40:13.190Z,99259.47
2023-07-03T07:42:41.454Z,99254.56
2023-07-03T07:45:10.576Z,99270.38
2023-07-03T07:47:39.705Z,99273.63
2023-07-03T07:50:09.225Z,99276.72
2023-07-03T07:52:37.807Z,99277.47
2023-07-03T07:55:09.165Z,99290.28
2023-07-03T07:57:37.692Z,99275.38
2023-07-03T08:00:06.862Z,99290.78
2023-07-03T08:02:35.200Z,99255.97
2023-07-03T08:05:03.546Z,99279.28
2023-07-03T08:07:31.740Z,99271.53
2023-07-03T08:09:59.935Z,99286.81
2023-07-03T08:12:29.517Z,99283.06
2023-07-03T08:14:57.795Z,99295.38
2023-07-03T08:17:26.203Z,99299.72
2023-07-03T08:19:54.485Z,99279.75
2023-07-03T08:22:22.592Z,99301.38
2023-07-03T08:24:50.754Z,99290.22
2023-07-03T08:27:19.358Z,99308.34
2023-07-03T08:29:54.184Z,99311.13
2023-07-03T08:32:24.478Z,99317.66
2023-07-03T08:37:23.717Z,99322.28
2023-07-03T08:39:52.055Z,99323.97
2023-07-03T08:42:26.114Z,99329.22
2023-07-03T08:44:56.404Z,99338.16
2023-07-03T08:47:28.579Z,99333.84
2023-07-03T08:49:59.259Z,99348.56
2023-07-03T08:52:37.959Z,99333.16
2023-07-03T08:55:09.287Z,99341.94
2023-07-03T08:57:39.740Z,99348.78
2023-07-03T09:00:12.716Z,99352.53
2023-07-03T09:02:46.400Z,99313.59
2023-07-03T09:05:30.931Z,99346.41
2023-07-03T09:08:03.926Z,99348.06
2023-07-03T09:10:37.877Z,99350.31
2023-07-03T09:13:11.454Z,99354.47
2023-07-03T09:15:51.663Z,99339.50
2023-07-03T09:18:25.420Z,99356.88
2023-07-03T09:20:54.627Z,99352.53
2023-07-03T09:23:26.301Z,99350.47
2023-07-03T09:26:04.817Z,99359.31
2023-07-03T09:28:39.328Z,99368.69
2023-07-03T09:31:09.529Z,99371.44
2023-07-03T09:33:37.895Z,99380.97
2023-07-03T09:36:21.501Z,99383.31
2023-07-03T09:38:49.982Z,99383.25
2023-07-03T09:41:27.298Z,99368.16
2023-07-03T09:43:56.678Z,99381.38
2023-07-03T09:46:26.283Z,99395.31
2023-07-03T09:48:54.846Z,99410.09
2023-07-03T09:51:29.034Z,99411.72
2023-07-03T09:54:00.237Z,99411.06
2023-07-03T09:56:33.079Z,99399.06
2023-07-03T09:59:02.896Z,99419.72
2023-07-03T10:06:42.018Z,99433.13
2023-07-03T10:11:56.301Z,99431.34
2023-07-03T10:14:29.592Z,99440.44
2023-07-03T10:17:02.096Z,99435.16
2023-07-03T10:19:30.758Z,99430.13
2023-07-03T10:22:00.120Z,99443.03
2023-07-03T10:24:28.328Z,99437.06
2023-07-03T10:27:01.056Z,99446.28
2023-07-03T10:29:34.943Z,99445.94
2023-07-03T10:32:09.180Z,99451.63
2023-07-03T10:34:44.888Z,99460.75
2023-07-03T10:37:16.198Z,99452.66
2023-07-03T10:39:51.189Z,99464.72
2023-07-03T10:42:24.272Z,99454.38
2023-07-03T10:44:58.489Z,99447.38
2023-07-03T10:47:35.219Z,99470.91
2023-07-03T10:50:04.951Z,99469.69
2023-07-03T10:52:38.464Z,99478.09
2023-07-03T10:55:16.164Z,99485.63
2023-07-03T10:57:54.532Z,99475.75
2023-07-03T11:00:29.855Z,99477.81
2023-07-03T11:03:14.878Z,99492.72
2023-07-03T11:05:46.784Z,99475.75
2023-07-03T11:08:23.415Z,99479.00
2023-07-03T11:11:02.571Z,99503.97
2023-07-03T11:13:50.426Z,99507.06
2023-07-03T11:16:23.882Z,99496.28
2023-07-03T11:24:20.661Z,99514.44
2023-07-03T11:29:29.476Z,99522.13
2023-07-03T11:31:59.285Z,99525.78
2023-07-03T11:40:36.210Z,99553.50
2023-07-03T11:46:23.500Z,99549.75
2023-07-03T11:49:00.259Z,99555.88
2023-07-03T11:51:47.951Z,99547.22
2023-07-03T11:54:24.732Z,99563.97
2023-07-03T11:57:08.875Z,99576.75
2023-07-03T11:59:40.146Z,99567.81
2023-07-03T12:02:45.067Z,99569.69
2023-07-03T12:05:13.954Z,99577.13
2023-07-03T12:08:00.313Z,99578.19
2023-07-03T12:10:59.225Z,99573.84
2023-07-03T12:13:46.644Z,99584.03
2023-07-03T12:16:17.803Z,99589.59
2023-07-03T12:18:46.271Z,99594.75
2023-07-03T12:21:14.682Z,99614.91
2023-07-03T12:23:49.697Z,99599.63
2023-07-03T12:26:19.080Z,99614.25
2023-07-03T12:28:48.158Z,99630.22
2023-07-03T12:31:23.232Z,99626.97
2023-07-03T12:33:54.403Z,99613.00
2023-07-03T12:36:24.940Z,99626.69
2023-07-03T12:38:55.695Z,99634.19
2023-07-03T12:41:29.275Z,99642.47
2023-07-03T12:46:31.849Z,99656.03
2023-07-03T12:49:12.943Z,99660.31
2023-07-03T12:51:44.232Z,99666.78
2023-07-03T12:54:15.592Z,99652.38
2023-07-03T12:56:45.405Z,99655.66
2023-07-03T12:59:18.021Z,99662.06
2023-07-03T13:01:51.016Z,99670.34
2023-07-03T13:04:29.336Z,99689.81
2023-07-03T13:06:58.313Z,99689.53
2023-07-03T13:09:31.178Z,99666.03
2023-07-03T13:11:59.932Z,99672.59
2023-07-03T13:14:30.090Z,99696.25
2023-07-03T13:17:02.235Z,99684.16
2023-07-03T13:19:34.712Z,99684.31
2023-07-03T13:22:06.040Z,99678.84
2023-07-03T13:24:43.903Z,99682.50
2023-07-03T13:27:21.566Z,99660.59
2023-07-03T13:29:59.015Z,99676.50
2023-07-03T13:32:27.603Z,99669.28
2023-07-03T13:35:00.622Z,99681.00
2023-07-03T13:37:31.096Z,99667.41
2023-07-03T13:40:02.621Z,99669.75
2023-07-03T13:42:32.114Z,99667.63
2023-07-03T13:45:00.505Z,99666.03
2023-07-03T13:47:29.610Z,99670.59
2023-07-03T13:49:58.750Z,99679.78
2023-07-03T13:52:26.984Z,99684.13
2023-07-03T13:54:55.183Z,99676.97
2023-07-03T13:57:24.889Z,99681.59
2023-07-03T13:59:53.189Z,99688.63
2023-07-03T14:02:28.891Z,99694.91
2023-07-03T14:05:05.776Z,99692.53
2023-07-03T14:07:33.900Z,99680.16
2023-07-03T14:10:06.379Z,99689.63
2023-07-03T14:12:35.886Z,99699.34
2023-07-03T14:15:12.835Z,99697.97
2023-07-03T14:17:41.207Z,99684.75
2023-07-03T14:20:12.237Z,99682.94
2023-07-03T14:22:40.838Z,99695.66
2023-07-03T14:25:13.670Z,99698.69
2023-07-03T14:27:44.297Z,99694.16
2023-07-03T14:30:14.283Z,99699.97
2023-07-03T14:32:54.883Z,99708.63
2023-07-03T14:35:24.696Z,99707.50
2023-07-03T14:37:53.553Z,99697.22
2023-07-03T14:40:21.986Z,99707.53
2023-07-03T14:42:52.341Z,99728.53
2023-07-03T14:45:21.040Z,99717.44
2023-07-03T14:47:49.240Z,99695.66
2023-07-03T14:50:17.748Z,99709.56
2023-07-03T14:52:47.527Z,99709.78
2023-07-03T14:55:18.109Z,99716.97
2023-07-03T14:57:48.254Z,99713.91
2023-07-03T15:00:18.941Z,99720.31
2023-07-03T15:02:49.817Z,99732.34
2023-07-03T15:05:19.730Z,99730.63
2023-07-03T15:07:51.201Z,99719.53
2023-07-03T15:10:21.340Z,99731.00
2023-07-03T15:12:52.784Z,99725.06
2023-07-03T15:15:22.755Z,99726.56
2023-07-03T15:17:54.724Z,99747.25
2023-07-03T15:20:23.251Z,99736.53
2023-07-03T15:22:52.606Z,99736.50
2023-07-03T15:25:21.380Z,99741.50
2023-07-03T15:27:49.498Z,99739.75
2023-07-03T15:30:17.884Z,99744.34
2023-07-03T15:32:54.048Z,99734.81
2023-07-03T15:35:25.311Z,99726.75
2023-07-03T15:37:53.723Z,99740.34
2023-07-03T15:40:21.917Z,99740.91
2023-07-03T15:42:50.383Z,99745.00
2023-07-03T15:45:24.456Z,99742.59
2023-07-03T15:47:54.076Z,99731.91
2023-07-03T15:50:22.515Z,99747.16
2023-07-03T15:52:50.656Z,99732.91
2023-07-03T15:55:21.709Z,99737.09
2023-07-03T15:57:50.213Z,99759.47
2023-07-03T16:00:21.777Z,99751.16
2023-07-03T16:02:54.394Z,99720.56
2023-07-03T16:05:22.609Z,99718.06
2023-07-03T16:07:50.699Z,99759.31
2023-07-03T16:10:18.957Z,99750.94
2023-07-03T16:12:49.952Z,99757.47
2023-07-03T16:15:18.060Z,99762.06
2023-07-03T16:17:46.511Z,99773.66
2023-07-03T16:20:18.336Z,99768.16
2023-07-03T16:22:49.598Z,99765.50
2023-07-03T16:25:20.807Z,99752.22
2023-07-03T16:27:48.992Z,99758.09
2023-07-03T16:30:19.706Z,99752.19
2023-07-03T16:32:48.409Z,99753.72
2023-07-03T16:35:18.085Z,99757.06
2023-07-03T16:37:48.936Z,99753.84
2023-07-03T16:40:17.686Z,99756.09
2023-07-03T16:42:48.640Z,99758.59
2023-07-03T16:45:17.436Z,99746.56
2023-07-03T16:47:45.744Z,99737.19
2023-07-03T16:50:14.330Z,99731.19
2023-07-03T16:52:46.241Z,99752.53
2023-07-03T16:55:21.446Z,99740.16
2023-07-03T16:57:52.738Z,99739.22
2023-07-03T17:00:21.153Z,99748.19
2023-07-03T17:02:49.440Z,99749.94
2023-07-03T17:05:18.196Z,99740.78
2023-07-03T17:07:48.885Z,99745.28
2023-07-03T17:10:17.001Z,99756.28
2023-07-03T17:12:45.315Z,99751.50
2023-07-03T17:15:13.577Z,99764.53
2023-07-03T17:17:42.023Z,99762.78
2023-07-03T17:20:10.905Z,99763.69
2023-07-03T17:22:39.161Z,99755.44
2023-07-03T17:25:09.779Z,99765.25
2023-07-03T17:27:37.923Z,99765.38
2023-07-03T17:30:08.572Z,99771.81
2023-07-03T17:32:37.539Z,99762.63
2023-07-03T17:35:06.128Z,99768.75
2023-07-03T17:37:34.341Z,99768.16
2023-07-03T17:40:05.379Z,99769.25
2023-07-03T17:42:35.170Z,99771.69
2023-07-03T17:45:03.401Z,99759.72
2023-07-03T17:47:31.960Z,99770.44
2023-07-03T17:50:00.227Z,99768.81
2023-07-03T17:52:28.387Z,99753.06
2023-07-03T17:54:56.453Z,99762.59
2023-07-03T17:57:24.900Z,99769.63
2023-07-03T17:59:54.545Z,99770.31
2023-07-03T18:02:23.106Z,99779.41
2023-07-03T18:04:51.480Z,99767.75
2023-07-03T18:07:20.546Z,99769.78
2023-07-03T18:09:49.860Z,99764.88
2023-07-03T18:12:19.655Z,99767.56
2023-07-03T18:14:47.792Z,99764.19
2023-07-03T18:17:19.227Z,99757.91
2023-07-03T18:19:47.666Z,99767.84
2023-07-03T18:22:15.908Z,99765.84
2023-07-03T18:24:44.352Z,99763.41
2023-07-03T18:27:12.787Z,99775.31
2023-07-03T18:29:41.021Z,99759.91
2023-07-03T18:32:11.344Z,99762.31
2023-07-03T18:34:41.709Z,99762.50
2023-07-03T18:37:09.914Z,99748.91
2023-07-03T18:39:38.584Z,99752.00
2023-07-03T18:42:07.966Z,99753.06
2023-07-03T18:44:36.587Z,99746.31
2023-07-03T18:47:06.169Z,99756.09
2023-07-03T18:49:34.644Z,99762.06
2023-07-03T18:52:04.504Z,99771.25
2023-07-03T18:54:32.696Z,99761.13
2023-07-03T18:57:01.401Z,99766.78
2023-07-03T18:59:29.860Z,99768.34
2023-07-03T19:01:58.318Z,99763.63
2023-07-03T19:04:26.840Z,99775.72
2023-07-03T19:06:55.206Z,99767.47
2023-07-03T19:09:25.038Z,99769.22
2023-07-03T19:11:54.218Z,99765.75
2023-07-03T19:14:22.414Z,99771.53
2023-07-03T19:16:51.728Z,99773.16
2023-07-03T19:19:22.975Z,99767.84
2023-07-03T19:21:51.089Z,99763.75
2023-07-03T19:24:19.510Z,99794.28
2023-07-03T19:26:50.532Z,99785.16
2023-07-03T19:29:19.089Z,99800.34
2023-07-03T19:31:47.570Z,99799.09
2023-07-03T19:34:15.824Z,99798.13
2023-07-03T19:36:44.000Z,99812.06
2023-07-03T19:39:12.627Z,99792.81
2023-07-03T19:41:41.393Z,99797.94
2023-07-03T19:44:10.962Z,99785.25
2023-07-03T19:46:39.635Z,99780.81
2023-07-03T19:49:08.163Z,99797.44
2023-07-03T19:51:38.309Z,99795.22
2023-07-03T19:54:07.204Z,99805.66
2023-07-03T19:56:35.533Z,99809.94
2023-07-03T19:59:03.674Z,99797.72
2023-07-03T20:01:33.992Z,99811.88
2023-07-03T20:04:02.590Z,99821.53
2023-07-03T20:06:30.755Z,99821.09
2023-07-03T20:08:59.249Z,99821.09
2023-07-03T20:11:29.483Z,99822.78
2023-07-03T20:13:57.675Z,99825.06
2023-07-03T20:16:26.013Z,99820.31
2023-07-03T20:18:56.817Z,99819.34
2023-07-03T20:21:25.092Z,99824.41
2023-07-03T20:23:57.869Z,99824.84
2023-07-03T20:26:27.246Z,99835.59
2023-07-03T20:28:55.464Z,99812.47
2023-07-03T20:31:26.098Z,99834.72
2023-07-03T20:33:56.598Z,99817.19
2023-07-03T20:36:24.896Z,99826.72
2023-07-03T20:38:53.578Z,99825.16
2023-07-03T20:41:22.434Z,99832.22
2023-07-03T20:43:54.038Z,99833.63
2023-07-03T20:46:22.977Z,99833.16
2023-07-03T20:48:55.335Z,99822.19
2023-07-03T20:51:28.172Z,99834.88
2023-07-03T20:54:04.989Z,99841.44
2023-07-03T20:56:38.981Z,99848.66
2023-07-03T20:59:08.251Z,99847.75
2023-07-03T21:01:38.379Z,99825.16
2023-07-03T21:04:09.027Z,99840.38
2023-07-03T21:06:40.025Z,99845.13
2023-07-03T21:09:08.299Z,99848.53
2023-07-03T21:11:40.464Z,99848.81
2023-07-03T21:14:09.179Z,99820.63
2023-07-03T21:16:38.149Z,99840.66
2023-07-03T21:19:09.281Z,99837.97
2023-07-03T21:21:40.011Z,99846.34
2023-07-03T21:24:10.543Z,99838.53
2023-07-03T21:26:39.128Z,99841.41
2023-07-03T21:29:07.905Z,99837.38
2023-07-03T21:31:38.380Z,99852.13
2023-07-03T21:34:09.965Z,99857.84
2023-07-03T21:36:39.493Z,99858.03
2023-07-03T21:39:07.868Z,99849.22
2023-07-03T21:41:42.148Z,99842.31
2023-07-03T21:44:16.332Z,99833.13
2023-07-03T21:46:45.486Z,99844.13
2023-07-03T21:49:18.033Z,99842.41
2023-07-03T21:51:50.317Z,99846.00
2023-07-03T21:54:20.798Z,99837.97
2023-07-03T21:56:49.280Z,99851.72
2023-07-03T21:59:17.879Z,99850.50
2023-07-03T22:01:51.542Z,99845.63
2023-07-03T22:04:22.717Z,99853.94
2023-07-03T22:06:53.239Z,99848.91
2023-07-03T22:09:32.567Z,99853.03
2023-07-03T22:12:07.899Z,99842.91
2023-07-03T22:14:37.617Z,99854.25
2023-07-03T22:17:06.334Z,99850.19
2023-07-03T22:19:34.809Z,99846.28
2023-07-03T22:22:06.362Z,99853.16
2023-07-03T22:24:34.845Z,99845.06
2023-07-03T22:27:03.742Z,99836.72
2023-07-03T22:29:32.036Z,99831.63
2023-07-03T22:32:02.570Z,99851.66
2023-07-03T22:34:33.652Z,99847.22
2023-07-03T22:37:03.160Z,99830.13
2023-07-03T22:39:31.501Z,99837.81
2023-07-03T22:42:00.070Z,99836.09
2023-07-03T22:44:28.952Z,99843.78
2023-07-03T22:46:57.806Z,99835.72
2023-07-03T22:49:26.358Z,99825.50
2023-07-03T22:51:54.657Z,99838.59
2023-07-03T22:54:24.565Z,99836.22
2023-07-03T22:56:53.259Z,99825.59
2023-07-03T22:59:24.741Z,99813.38
2023-07-03T23:01:54.457Z,99838.53
2023-07-03T23:04:23.143Z,99836.72
2023-07-03T23:06:51.472Z,99815.25
2023-07-03T23:09:22.611Z,99832.94
2023-07-03T23:11:52.532Z,99833.56
2023-07-03T23:14:20.731Z,99829.22
2023-07-03T23:16:49.863Z,99829.34
2023-07-03T23:19:20.043Z,99812.75
2023-07-03T23:21:55.955Z,99817.97
2023-07-03T23:24:26.324Z,99818.41
2023-07-03T23:26:56.830Z,99827.63
2023-07-03T23:29:24.951Z,99820.13
2023-07-03T23:31:54.100Z,99812.59
2023-07-03T23:34:23.909Z,99817.56
2023-07-03T23:36:52.366Z,99815.88
2023-07-03T23:39:21.338Z,99827.00
2023-07-03T23:41:51.271Z,99820.06
2023-07-03T23:44:20.907Z,99811.19
2023-07-03T23:46:51.337Z,99824.66
2023-07-03T23:49:20.128Z,99822.78
2023-07-03T23:51:50.056Z,99819.34
2023-07-03T23:54:18.184Z,99820.25
2023-07-03T23:56:47.102Z,99821.53
2023-07-03T23:59:15.669Z,99833.91
